Terminal Aerodrome Forecast
Issued by NWS Nashville, TN

Home | Current Version | Previous Version | Text Only | Print | Product List | Glossary On
Versions: 1 2 3 4 5 6 7 8 9 10 11 12 13 14 15 16 17 18 19 20 21 22 23 24 25 26 27 28 29 30 31 32 33
000
FTUS44 KOHX 030652 AAA
TAFCSV
TAF AMD
KCSV 030652Z 0307/0406 23008KT 4SM -TSRA BR BKN010 OVC025CB
      TEMPO 0307/0308 1SM +TSRA BR BKN009CB
     FM030800 24006KT 5SM BR VCSH BKN011 OVC035
     FM031800 25008KT P6SM VCTS BKN015CB
     FM040000 22003KT P6SM VCSH OVC020=

USA.gov is the U.S. government's official web portal to all federal, state and local government web resources and services.